createdAt,value
2023-02-22T01:12:05.861Z,51.2
2023-02-22T01:36:13.511Z,56.2
2023-02-22T02:00:01.784Z,58.3
2023-02-22T02:36:11.371Z,51.7
2023-02-22T02:42:02.128Z,41.3
2023-02-22T02:47:52.247Z,45
2023-02-22T02:53:42.396Z,47.7
2023-02-22T02:59:33.043Z,49.3
2023-02-22T03:05:24.112Z,47.1
2023-02-22T03:11:14.631Z,46.2
2023-02-22T03:17:04.427Z,45.7
2023-02-22T03:22:53.943Z,42.2
2023-02-22T03:28:43.702Z,45.7
2023-02-22T03:34:33.749Z,37.9
2023-02-22T03:40:23.823Z,35.3
2023-02-22T03:46:14.186Z,33.2
2023-02-22T03:52:05.082Z,33.1
2023-02-22T03:57:55.278Z,33.3
2023-02-22T04:03:45.951Z,30.7
2023-02-22T04:09:36.278Z,32.4
2023-02-22T04:15:26.568Z,31
2023-02-22T04:21:17.819Z,32.7
2023-02-22T04:27:06.865Z,29.9
2023-02-22T04:32:55.799Z,30.5
2023-02-22T04:38:44.504Z,30.4
2023-02-22T04:44:33.144Z,30.1
2023-02-22T04:50:21.504Z,29.5
2023-02-22T04:56:11.270Z,28.9
2023-02-22T05:02:02.105Z,27.7
2023-02-22T05:07:52.485Z,29.2
2023-02-22T05:13:41.234Z,27.9
2023-02-22T05:19:30.212Z,27.9
2023-02-22T05:25:24.831Z,28.2
2023-02-22T05:31:17.897Z,27.2
2023-02-22T05:37:08.854Z,34.1
2023-02-22T05:43:00.631Z,34.2
2023-02-22T05:48:55.713Z,37.6
2023-02-22T05:54:49.281Z,38.8
2023-02-22T06:00:40.213Z,37.5
2023-02-22T06:06:32.702Z,35.3
2023-02-22T06:12:25.845Z,34.6
2023-02-22T06:18:16.405Z,36.4
2023-02-22T06:24:07.883Z,34.5
2023-02-22T06:30:00.990Z,33.7
2023-02-22T06:35:54.261Z,34.8
2023-02-22T06:41:45.593Z,33.5
2023-02-22T06:47:37.352Z,32.9
2023-02-22T06:53:29.060Z,34.1
2023-02-22T06:59:21.923Z,34.4
2023-02-22T07:05:13.629Z,31.5
2023-02-22T07:11:07.274Z,32.4
2023-02-22T07:16:55.333Z,36
2023-02-22T07:22:46.250Z,34.3
2023-02-22T07:28:35.908Z,32.7
2023-02-22T07:34:25.901Z,32.7
2023-02-22T07:40:16.020Z,31.7
2023-02-22T07:46:07.780Z,34.7
2023-02-22T07:51:57.774Z,34.8
2023-02-22T07:57:47.138Z,36.3
2023-02-22T08:03:39.070Z,36.5
2023-02-22T08:09:30.340Z,34.9
2023-02-22T08:15:19.687Z,35.1
2023-02-22T08:21:10.150Z,35.2
2023-02-22T08:27:00.940Z,34.6
2023-02-22T08:32:52.482Z,36.4
2023-02-22T08:38:43.125Z,36.5
2023-02-22T08:44:34.159Z,33.4
2023-02-22T08:50:24.556Z,31.3
2023-02-22T08:56:15.199Z,32.2
2023-02-22T09:02:05.090Z,30
2023-02-22T09:07:55.752Z,30.6
2023-02-22T09:13:47.104Z,29.5
2023-02-22T09:19:37.658Z,28.8
2023-02-22T09:25:33.084Z,27.7
2023-02-22T09:31:29.208Z,23.6
2023-02-22T09:37:21.504Z,21.8
2023-02-22T09:43:15.232Z,21.9
2023-02-22T09:49:07.269Z,20.6
2023-02-22T09:55:03.028Z,21.2
2023-02-22T10:00:55.655Z,19.7
2023-02-22T10:06:49.156Z,20.9
2023-02-22T10:12:39.303Z,20.9
2023-02-22T10:18:30.692Z,21.6
2023-02-22T10:24:22.784Z,21.3
2023-02-22T10:30:34.676Z,21.3
2023-02-22T10:36:25.486Z,22.1
2023-02-22T10:42:17.034Z,22.2
2023-02-22T10:48:11.559Z,21.6
2023-02-22T10:54:09.891Z,19.8
2023-02-22T10:59:59.744Z,17.4
2023-02-22T11:05:51.691Z,17.8
2023-02-22T11:11:44.077Z,16.4
2023-02-22T11:17:38.060Z,14.5
2023-02-22T11:23:40.282Z,15.1
2023-02-22T11:29:35.001Z,13.6
2023-02-22T11:35:36.770Z,12.7
2023-02-22T11:41:32.027Z,12.9
2023-02-22T11:47:26.487Z,11.8
2023-02-22T11:53:22.986Z,12.5
2023-02-22T11:59:28.351Z,12.2
2023-02-22T12:05:20.955Z,12.7
2023-02-22T12:11:12.784Z,12.7
2023-02-22T12:17:05.239Z,13
2023-02-22T12:23:02.146Z,13.8
2023-02-22T12:29:27.152Z,14.2
2023-02-22T12:35:57.862Z,14.6
2023-02-22T12:42:17.306Z,15.8
2023-02-22T13:06:10.788Z,16.4
2023-02-22T13:12:23.490Z,17.1
2023-02-22T13:18:43.808Z,16.6
2023-02-22T13:31:26.653Z,17.3
2023-02-22T13:37:26.098Z,17.4
2023-02-22T13:43:42.101Z,17.4
2023-02-22T13:50:02.257Z,16.7
2023-02-22T13:56:01.809Z,16.6
2023-02-22T14:02:09.439Z,17.1
2023-02-22T14:08:05.486Z,17
2023-02-22T14:14:03.117Z,17
2023-02-22T14:19:58.876Z,17.3
2023-02-22T14:25:50.155Z,17.2
2023-02-22T14:31:45.814Z,17.4
2023-02-22T14:37:54.923Z,17.8
2023-02-22T14:43:45.929Z,18.5
2023-02-22T14:49:42.572Z,18.8
2023-02-22T14:55:48.859Z,18.6
2023-02-22T15:02:24.112Z,18.3
2023-02-22T15:14:43.602Z,18.1
2023-02-22T15:21:07.098Z,18.6
2023-02-22T15:28:07.614Z,18.3
2023-02-22T15:33:59.996Z,17.4
2023-02-22T15:39:53.432Z,18
2023-02-22T15:52:48.737Z,17.7
2023-02-22T16:18:13.163Z,18.3
2023-02-22T16:24:34.427Z,18.4
2023-02-22T16:30:37.752Z,17.4
2023-02-22T16:36:45.763Z,17.5
2023-02-22T16:48:28.677Z,18.2
2023-02-22T16:54:19.282Z,18.8
2023-02-22T17:00:09.561Z,19
2023-02-22T17:06:01.339Z,18.5
2023-02-22T17:11:53.068Z,20.5
2023-02-22T17:17:44.378Z,20
2023-02-22T17:23:35.530Z,20.1
2023-02-22T17:29:26.760Z,18.9
2023-02-22T17:35:18.871Z,19.4
2023-02-22T17:41:09.741Z,18.8
2023-02-22T17:47:06.650Z,18.8
2023-02-22T17:53:19.054Z,18.5
2023-02-22T17:59:17.523Z,18.5
2023-02-22T18:05:38.787Z,19.9
2023-02-22T18:11:36.930Z,19.3
2023-02-22T18:17:37.810Z,20.4
2023-02-22T18:23:41.386Z,21.2
2023-02-22T18:55:55.814Z,23.9
2023-02-22T19:01:43.556Z,22.6
2023-02-22T19:07:34.634Z,23.8
2023-02-22T19:13:32.146Z,25.3
2023-02-22T19:20:02.985Z,25.1
2023-02-22T19:26:22.405Z,25.2
2023-02-22T19:32:13.512Z,25.8
2023-02-22T19:38:23.387Z,24.5
2023-02-22T19:44:14.983Z,25.1
2023-02-22T19:50:07.976Z,24.7
2023-02-22T19:56:10.640Z,26
2023-02-22T20:02:03.610Z,27.5
2023-02-22T20:07:59.114Z,26.5
2023-02-22T20:14:10.917Z,26.7
2023-02-22T20:20:09.111Z,27
2023-02-22T20:26:12.796Z,28
2023-02-22T20:32:11.133Z,28.4
2023-02-22T20:38:10.925Z,27.4
2023-02-22T20:44:29.593Z,27.5
2023-02-22T20:50:46.581Z,28.2
2023-02-22T20:56:39.050Z,26.9
2023-02-22T21:02:30.780Z,27.2
2023-02-22T21:08:24.698Z,26.6
2023-02-22T21:14:16.109Z,30.5
2023-02-22T21:20:27.105Z,35.4
2023-02-22T21:26:18.386Z,39.1
2023-02-22T21:32:08.852Z,35.3
2023-02-22T21:38:09.380Z,34.9
2023-02-22T21:44:02.033Z,36.4
2023-02-22T21:50:07.975Z,35
2023-02-22T21:56:12.049Z,34.9
2023-02-22T22:02:07.906Z,37.4
2023-02-22T22:07:58.437Z,36.5
2023-02-22T22:13:51.967Z,38.1
2023-02-22T22:19:47.010Z,38.1
2023-02-22T22:25:44.089Z,38.3
2023-02-22T22:31:40.603Z,39
2023-02-22T22:37:32.216Z,40.6
2023-02-22T22:43:26.918Z,41
2023-02-22T22:49:32.056Z,49
2023-02-22T23:02:06.217Z,40.7
2023-02-22T23:08:18.892Z,40.4
2023-02-22T23:14:17.887Z,39.3
2023-02-22T23:20:29.624Z,35.7
2023-02-22T23:27:03.609Z,37.5
2023-02-22T23:33:27.501Z,40.7
2023-02-22T23:46:12.819Z,37.1
